Ingen flygning idag heller pga vädret. Fast med den här TAF:en, kompletterat med uppgifter om Moderate-Servere Icing, så stannar jag heller nere. Det blåste rejält och det var kraftig snöbyar som passerade även om det angavs något annat i TAF.

TAF ESMS 171059Z 1712/1812 08015KT 9999 BKN030
         TEMPO 1712/1716 08018G35KT 1200 -SHSN DRSN BKN012 BKN020TCU
         TEMPO 1716/1721 07018G28KT 2500 -SHSN BKN020TCU=

Nytt försök imorgon.